createdAt,value
2019-05-21T00:00:25.859Z,11.27
2019-05-21T00:02:52.942Z,11.24
2019-05-21T00:05:20.083Z,11.23
2019-05-21T00:07:47.130Z,11.21
2019-05-21T00:10:15.808Z,11.22
2019-05-21T00:12:42.901Z,11.20
2019-05-21T00:15:09.943Z,11.19
2019-05-21T00:17:37.048Z,11.18
2019-05-21T00:20:04.516Z,11.15
2019-05-21T00:22:31.638Z,11.16
2019-05-21T00:24:58.705Z,11.14
2019-05-21T00:27:25.792Z,11.14
2019-05-21T00:30:29.292Z,11.14
2019-05-21T00:33:33.964Z,11.12
2019-05-21T00:36:42.406Z,11.15
2019-05-21T00:39:48.414Z,11.21
2019-05-21T00:42:57.937Z,11.21
2019-05-21T00:45:25.014Z,11.24
2019-05-21T00:47:52.100Z,11.25
2019-05-21T00:50:19.182Z,11.24
2019-05-21T00:52:46.286Z,11.23
2019-05-21T00:55:32.828Z,11.22
2019-05-21T00:57:59.899Z,11.21
2019-05-21T01:00:26.988Z,11.21
2019-05-21T01:02:54.109Z,11.22
2019-05-21T01:05:21.158Z,11.17
2019-05-21T01:07:48.225Z,11.14
2019-05-21T01:10:34.785Z,11.12
2019-05-21T01:13:01.904Z,11.11
2019-05-21T01:15:28.992Z,11.09
2019-05-21T01:17:56.019Z,11.08
2019-05-21T01:20:23.108Z,11.08
2019-05-21T01:22:50.214Z,11.06
2019-05-21T01:25:17.268Z,11.04
2019-05-21T01:27:44.317Z,11.01
2019-05-21T01:30:11.701Z,11.01
2019-05-21T01:32:38.792Z,11.01
2019-05-21T01:35:18.273Z,11.00
2019-05-21T01:37:45.332Z,11.01
2019-05-21T01:40:14.530Z,10.98
2019-05-21T01:42:41.602Z,10.98
2019-05-21T01:45:08.666Z,11.00
2019-05-21T01:47:35.762Z,11.01
2019-05-21T01:50:02.987Z,11.01
2019-05-21T01:52:30.081Z,11.00
2019-05-21T01:54:57.167Z,10.98
2019-05-21T01:57:24.283Z,10.97
2019-05-21T01:59:51.357Z,10.97
2019-05-21T02:02:18.412Z,10.96
2019-05-21T02:04:45.498Z,10.93
2019-05-21T02:07:12.638Z,10.95
2019-05-21T02:09:59.291Z,10.95
2019-05-21T02:15:46.914Z,10.97
2019-05-21T02:18:14.022Z,10.98
2019-05-21T02:20:41.134Z,10.98
2019-05-21T02:23:08.229Z,10.97
2019-05-21T02:25:35.278Z,10.99
2019-05-21T02:28:02.349Z,11.01
2019-05-21T02:30:29.438Z,11.02
2019-05-21T02:32:56.494Z,11.04
2019-05-21T02:35:23.633Z,11.05
2019-05-21T02:37:50.727Z,11.09
2019-05-21T02:40:17.947Z,11.12
2019-05-21T02:42:45.064Z,11.15
2019-05-21T02:45:12.204Z,11.14
2019-05-21T02:47:39.295Z,11.16
2019-05-21T02:50:06.572Z,11.15
2019-05-21T02:52:33.670Z,11.17
2019-05-21T02:55:00.745Z,11.17
2019-05-21T02:57:38.291Z,11.16
2019-05-21T03:00:07.594Z,11.15
2019-05-21T03:02:37.397Z,11.13
2019-05-21T03:05:04.967Z,11.13
2019-05-21T03:07:32.134Z,11.13
2019-05-21T03:09:59.203Z,11.14
2019-05-21T03:12:26.275Z,11.14
2019-05-21T03:14:53.336Z,11.15
2019-05-21T03:17:20.414Z,11.16
2019-05-21T03:19:47.473Z,11.18
2019-05-21T03:22:14.572Z,11.20
2019-05-21T03:24:41.691Z,11.22
2019-05-21T03:27:08.788Z,11.24
2019-05-21T03:29:35.868Z,11.25
2019-05-21T03:32:02.960Z,11.26
2019-05-21T03:34:30.153Z,11.26
2019-05-21T03:36:57.247Z,11.27
2019-05-21T03:39:24.286Z,11.27
2019-05-21T03:41:51.392Z,11.28
2019-05-21T03:44:18.443Z,11.29
2019-05-21T03:46:45.531Z,11.30
2019-05-21T03:49:12.653Z,11.31
2019-05-21T03:51:39.731Z,11.32
2019-05-21T03:54:06.795Z,11.36
2019-05-21T03:56:33.870Z,11.37
2019-05-21T03:59:00.927Z,11.38
2019-05-21T04:01:28.000Z,11.39
2019-05-21T04:03:55.095Z,11.42
2019-05-21T04:06:22.213Z,11.43
2019-05-21T04:08:49.319Z,11.45
2019-05-21T04:11:16.525Z,11.47
2019-05-21T04:13:43.666Z,11.48
2019-05-21T04:16:23.310Z,11.50
2019-05-21T04:18:54.567Z,11.51
2019-05-21T04:21:21.618Z,11.52
2019-05-21T04:23:48.710Z,11.51
2019-05-21T04:26:15.811Z,11.50
2019-05-21T04:28:42.885Z,11.51
2019-05-21T04:31:10.007Z,11.52
2019-05-21T04:33:37.155Z,11.51
2019-05-21T04:36:04.257Z,11.52
2019-05-21T04:38:31.414Z,11.54
2019-05-21T04:40:58.474Z,11.55
2019-05-21T04:43:25.609Z,11.53
2019-05-21T04:45:52.713Z,11.53
2019-05-21T04:48:19.790Z,11.56
2019-05-21T04:50:46.925Z,11.54
2019-05-21T04:53:14.008Z,11.55
2019-05-21T04:55:41.109Z,11.52
2019-05-21T04:58:08.195Z,11.54
2019-05-21T05:00:35.293Z,11.49
2019-05-21T05:03:02.417Z,11.60
2019-05-21T05:05:29.655Z,11.70
2019-05-21T05:07:56.753Z,11.77
2019-05-21T05:10:23.827Z,11.76
2019-05-21T05:12:50.901Z,11.73
2019-05-21T05:15:18.050Z,11.69
2019-05-21T05:17:45.089Z,11.63
2019-05-21T05:23:13.603Z,11.64
2019-05-21T05:25:40.685Z,11.62
2019-05-21T05:28:07.790Z,11.65
2019-05-21T05:30:34.884Z,11.68
2019-05-21T05:33:01.964Z,11.71
2019-05-21T05:35:29.017Z,11.72
2019-05-21T05:37:56.083Z,11.73
2019-05-21T05:40:23.352Z,11.73
2019-05-21T05:42:50.494Z,11.70
2019-05-21T05:45:17.675Z,11.66
2019-05-21T05:47:44.754Z,11.62
2019-05-21T05:52:51.168Z,11.55
2019-05-21T05:55:18.215Z,11.49
2019-05-21T05:57:45.365Z,11.45
2019-05-21T06:02:52.118Z,11.38
2019-05-21T06:05:19.323Z,11.34
2019-05-21T06:07:58.785Z,11.33
2019-05-21T06:10:25.214Z,11.35
2019-05-21T06:12:52.328Z,11.32
2019-05-21T06:15:19.435Z,11.33
2019-05-21T06:17:46.500Z,11.24
2019-05-21T06:20:34.892Z,11.25
2019-05-21T06:23:02.041Z,11.24
2019-05-21T06:25:29.167Z,11.25
2019-05-21T06:27:56.269Z,11.24
2019-05-21T06:30:23.349Z,11.20
2019-05-21T06:32:50.462Z,11.20
2019-05-21T06:35:17.575Z,11.23
2019-05-21T06:37:44.685Z,11.22
2019-05-21T06:40:50.700Z,11.25
2019-05-21T06:43:17.797Z,11.30
2019-05-21T06:45:44.934Z,11.30
2019-05-21T06:48:12.023Z,11.27
2019-05-21T06:50:39.169Z,11.28
2019-05-21T06:53:06.287Z,11.30
2019-05-21T06:55:33.434Z,11.36
2019-05-21T06:58:00.500Z,11.39
2019-05-21T07:00:27.730Z,11.43
2019-05-21T07:02:54.809Z,11.54
2019-05-21T07:05:21.929Z,11.61
2019-05-21T07:07:49.063Z,11.66
2019-05-21T07:10:16.203Z,11.66
2019-05-21T07:12:43.278Z,11.61
2019-05-21T07:18:11.282Z,11.58
2019-05-21T07:20:38.466Z,11.54
2019-05-21T07:23:05.720Z,11.58
2019-05-21T07:25:32.826Z,11.65
2019-05-21T07:27:59.892Z,11.73
2019-05-21T07:30:26.997Z,11.82
2019-05-21T07:32:54.141Z,11.86
2019-05-21T07:35:21.297Z,11.89
2019-05-21T07:37:48.382Z,11.89
2019-05-21T07:40:15.601Z,11.96
2019-05-21T07:42:42.688Z,12.04
2019-05-21T07:45:09.753Z,12.05
2019-05-21T07:47:36.909Z,12.13
2019-05-21T07:50:04.322Z,12.08
2019-05-21T07:52:31.403Z,12.05
2019-05-21T07:54:58.515Z,12.15
2019-05-21T07:57:25.663Z,12.25
2019-05-21T07:59:52.748Z,12.20
2019-05-21T08:02:19.813Z,12.20
2019-05-21T08:04:46.951Z,12.25
2019-05-21T08:07:14.256Z,12.06
2019-05-21T08:09:41.405Z,12.07
2019-05-21T08:12:27.806Z,12.13
2019-05-21T08:14:37.498Z,12.24
2019-05-21T08:17:04.671Z,12.24
2019-05-21T08:19:31.721Z,12.23
2019-05-21T08:21:58.841Z,12.30
2019-05-21T08:24:25.921Z,12.29
2019-05-21T08:27:05.693Z,12.25
2019-05-21T08:29:45.909Z,12.34
2019-05-21T08:32:13.030Z,12.34
2019-05-21T08:34:40.122Z,12.35
2019-05-21T08:37:07.218Z,12.29
2019-05-21T08:39:34.316Z,12.29
2019-05-21T08:42:01.412Z,12.28
2019-05-21T08:44:28.493Z,12.30
2019-05-21T08:49:44.645Z,12.38
2019-05-21T08:52:11.729Z,12.36
2019-05-21T08:54:58.373Z,12.40
2019-05-21T08:57:25.492Z,12.38
2019-05-21T08:59:52.565Z,12.34
2019-05-21T09:02:19.663Z,12.39
2019-05-21T09:04:47.017Z,12.35
2019-05-21T09:07:33.685Z,12.39
2019-05-21T09:10:00.789Z,12.39
2019-05-21T09:12:27.922Z,12.59
2019-05-21T09:14:55.019Z,12.59
2019-05-21T09:17:22.129Z,12.82
2019-05-21T09:19:49.203Z,12.96
2019-05-21T09:22:16.297Z,12.96
2019-05-21T09:24:43.375Z,13.16
2019-05-21T09:27:10.492Z,13.39
2019-05-21T09:29:37.575Z,13.47
2019-05-21T09:32:04.685Z,13.34
2019-05-21T09:34:47.488Z,13.35
2019-05-21T09:37:00.825Z,13.23
2019-05-21T09:39:27.905Z,13.30
2019-05-21T09:41:55.036Z,13.38
2019-05-21T09:44:22.119Z,13.46
2019-05-21T09:46:49.215Z,13.43
2019-05-21T09:49:16.282Z,13.50
2019-05-21T09:51:43.378Z,13.56
2019-05-21T09:54:10.490Z,13.54
2019-05-21T09:56:37.580Z,13.45
2019-05-21T09:59:17.207Z,13.56
2019-05-21T10:01:48.018Z,13.75
2019-05-21T10:04:15.544Z,13.74
2019-05-21T10:06:42.631Z,13.71
2019-05-21T10:09:15.243Z,13.59
2019-05-21T10:11:42.382Z,13.63
2019-05-21T10:14:09.539Z,13.56
2019-05-21T10:16:36.632Z,13.61
2019-05-21T10:19:03.910Z,13.64
2019-05-21T10:21:31.031Z,13.57
2019-05-21T10:23:58.117Z,13.69
2019-05-21T10:26:25.197Z,13.69
2019-05-21T10:28:52.279Z,13.89
2019-05-21T10:31:19.371Z,14.09
2019-05-21T10:33:46.479Z,14.12
2019-05-21T10:36:13.763Z,14.15
2019-05-21T10:38:40.922Z,14.12
2019-05-21T10:41:08.004Z,13.97
2019-05-21T10:43:35.097Z,13.92
2019-05-21T10:46:02.209Z,13.99
2019-05-21T10:48:29.352Z,13.96
2019-05-21T10:50:56.443Z,14.02
2019-05-21T10:53:23.481Z,14.04
2019-05-21T10:55:50.596Z,13.99
2019-05-21T10:58:17.734Z,14.08
2019-05-21T11:00:46.846Z,14.17
2019-05-21T11:03:39.441Z,14.25
2019-05-21T11:06:10.319Z,14.18
2019-05-21T11:08:35.529Z,14.18
2019-05-21T11:11:02.611Z,14.28
2019-05-21T11:13:29.711Z,14.42
2019-05-21T11:15:56.978Z,14.59
2019-05-21T11:18:24.035Z,14.57
2019-05-21T11:20:51.478Z,14.42
2019-05-21T11:23:30.385Z,14.37
2019-05-21T11:25:57.601Z,14.37
2019-05-21T11:28:24.719Z,14.31
2019-05-21T11:30:52.232Z,14.30
2019-05-21T11:33:19.405Z,14.33
2019-05-21T11:35:46.518Z,14.27
2019-05-21T11:38:13.585Z,14.16
2019-05-21T11:40:40.671Z,14.22
2019-05-21T11:43:07.832Z,14.27
2019-05-21T11:45:34.950Z,14.33
2019-05-21T11:48:02.034Z,14.22
2019-05-21T11:50:29.152Z,14.20
2019-05-21T11:52:56.220Z,14.17
2019-05-21T11:55:23.354Z,14.10
2019-05-21T11:57:50.418Z,14.07
2019-05-21T12:00:21.686Z,13.97
2019-05-21T12:02:48.505Z,14.02
2019-05-21T12:05:15.581Z,14.23
2019-05-21T12:07:42.692Z,14.24
2019-05-21T12:10:14.808Z,14.29
2019-05-21T12:12:41.954Z,14.24
2019-05-21T12:15:09.159Z,14.23
2019-05-21T12:17:36.271Z,14.24
2019-05-21T12:20:04.017Z,14.31
2019-05-21T12:22:31.082Z,14.23
2019-05-21T12:24:58.189Z,14.31
2019-05-21T12:27:25.251Z,14.37
2019-05-21T12:29:52.363Z,14.42
2019-05-21T12:32:21.215Z,14.34
2019-05-21T12:34:48.467Z,14.27
2019-05-21T12:37:15.622Z,14.19
2019-05-21T12:39:42.942Z,14.23
2019-05-21T12:42:10.013Z,14.20
2019-05-21T12:44:37.093Z,13.96
2019-05-21T12:47:04.161Z,13.75
2019-05-21T12:49:31.277Z,13.74
2019-05-21T12:51:58.357Z,13.66
2019-05-21T12:54:25.637Z,13.59
2019-05-21T12:56:52.707Z,13.50
2019-05-21T12:59:19.810Z,13.35
2019-05-21T13:01:46.930Z,13.32
2019-05-21T13:04:14.051Z,13.25
2019-05-21T13:06:41.178Z,13.18
2019-05-21T13:09:08.475Z,13.17
2019-05-21T13:11:35.636Z,13.10
2019-05-21T13:14:02.815Z,13.07
2019-05-21T13:16:29.948Z,13.04
2019-05-21T13:18:57.007Z,12.95
2019-05-21T13:21:24.120Z,12.96
2019-05-21T13:23:51.212Z,12.83
2019-05-21T13:26:18.356Z,12.83
2019-05-21T13:28:45.438Z,12.91
2019-05-21T13:31:12.516Z,12.86
2019-05-21T13:33:39.565Z,12.88
2019-05-21T13:36:06.922Z,12.88
2019-05-21T13:38:33.998Z,12.88
2019-05-21T13:41:01.210Z,12.91
2019-05-21T13:43:28.334Z,12.91
2019-05-21T13:45:55.414Z,12.92
2019-05-21T13:48:22.515Z,12.99
2019-05-21T13:50:49.648Z,12.99
2019-05-21T13:53:16.710Z,12.94
2019-05-21T13:55:44.050Z,12.98
2019-05-21T13:58:11.136Z,12.92
2019-05-21T14:00:44.531Z,12.98
2019-05-21T14:03:12.031Z,12.97
2019-05-21T14:05:39.146Z,13.02
2019-05-21T14:08:06.281Z,13.02
2019-05-21T14:10:33.487Z,13.16
2019-05-21T14:13:00.786Z,13.14
2019-05-21T14:15:27.874Z,13.14
2019-05-21T14:17:55.019Z,13.22
2019-05-21T14:20:22.109Z,13.13
2019-05-21T14:22:49.208Z,13.14
2019-05-21T14:25:17.490Z,13.14
2019-05-21T14:27:45.272Z,13.13
2019-05-21T14:30:16.486Z,13.13
2019-05-21T14:32:45.283Z,13.15
2019-05-21T14:35:14.086Z,13.21
2019-05-21T14:37:42.601Z,13.18
2019-05-21T14:40:32.423Z,13.24
2019-05-21T14:43:10.330Z,13.17
2019-05-21T14:45:37.453Z,13.17
2019-05-21T14:48:15.432Z,13.18
2019-05-21T14:53:27.257Z,13.08
2019-05-21T14:55:54.374Z,13.05
2019-05-21T14:58:43.534Z,12.99
2019-05-21T15:01:11.053Z,13.06
2019-05-21T15:03:38.137Z,13.03
2019-05-21T15:06:05.297Z,13.09
2019-05-21T15:08:32.447Z,13.02
2019-05-21T15:11:01.058Z,13.00
2019-05-21T15:13:28.439Z,13.02
2019-05-21T15:15:55.568Z,13.10
2019-05-21T15:18:22.688Z,13.10
2019-05-21T15:21:09.479Z,13.16
2019-05-21T15:23:36.542Z,13.18
2019-05-21T15:26:03.963Z,12.99
2019-05-21T15:28:43.265Z,12.98
2019-05-21T15:31:10.369Z,12.98
2019-05-21T15:33:37.475Z,12.84
2019-05-21T15:36:04.569Z,12.84
2019-05-21T15:38:48.761Z,12.80
2019-05-21T15:41:10.831Z,12.72
2019-05-21T15:43:32.070Z,12.72
2019-05-21T15:45:59.158Z,12.72
2019-05-21T15:48:27.139Z,12.75
2019-05-21T15:50:54.323Z,12.71
2019-05-21T15:53:33.513Z,12.65
2019-05-21T15:56:13.608Z,12.59
2019-05-21T15:58:40.729Z,12.59
2019-05-21T16:01:07.897Z,12.65
2019-05-21T16:03:35.009Z,12.55
2019-05-21T16:06:02.097Z,12.45
2019-05-21T16:08:29.340Z,12.41
2019-05-21T16:10:56.541Z,12.38
2019-05-21T16:13:23.726Z,12.38
2019-05-21T16:15:50.856Z,12.38
2019-05-21T16:18:20.055Z,12.30
2019-05-21T16:20:47.159Z,12.24
2019-05-21T16:23:14.303Z,12.07
2019-05-21T16:25:41.435Z,12.07
2019-05-21T16:28:08.553Z,11.99
2019-05-21T16:30:35.648Z,11.99
2019-05-21T16:33:02.800Z,11.99
2019-05-21T16:35:30.211Z,11.95
2019-05-21T16:37:57.327Z,11.95
2019-05-21T16:40:24.523Z,11.95
2019-05-21T16:42:51.617Z,11.91
2019-05-21T16:45:20.526Z,11.83
2019-05-21T16:47:47.679Z,11.75
2019-05-21T16:50:36.284Z,11.78
2019-05-21T16:53:03.505Z,11.78
2019-05-21T16:55:31.568Z,11.75
2019-05-21T16:58:01.375Z,11.71
2019-05-21T17:00:28.896Z,11.70
2019-05-21T17:02:56.033Z,11.71
2019-05-21T17:05:35.561Z,11.61
2019-05-21T17:08:03.228Z,11.64
2019-05-21T17:10:30.301Z,11.61
2019-05-21T17:13:28.042Z,11.61
2019-05-21T17:15:57.134Z,11.60
2019-05-21T17:18:24.283Z,11.59
2019-05-21T17:20:51.432Z,11.58
2019-05-21T17:23:18.653Z,11.58
2019-05-21T17:26:05.260Z,11.55
2019-05-21T17:28:32.495Z,11.49
2019-05-21T17:30:59.594Z,11.49
2019-05-21T17:33:26.697Z,11.45
2019-05-21T17:35:53.779Z,11.43
2019-05-21T17:38:24.015Z,11.45
2019-05-21T17:40:49.910Z,11.44
2019-05-21T17:43:17.123Z,11.47
2019-05-21T17:45:44.213Z,11.47
2019-05-21T17:48:11.327Z,11.44
2019-05-21T17:50:38.421Z,11.45
2019-05-21T17:53:05.546Z,11.43
2019-05-21T17:55:32.664Z,11.43
2019-05-21T17:57:59.755Z,11.39
2019-05-21T18:00:49.266Z,11.41
2019-05-21T18:03:17.222Z,11.37
2019-05-21T18:05:44.654Z,11.31
2019-05-21T18:08:12.260Z,11.31
2019-05-21T18:10:39.704Z,11.27
2019-05-21T18:13:07.207Z,11.23
2019-05-21T18:15:34.543Z,11.20
2019-05-21T18:18:02.034Z,11.20
2019-05-21T18:20:29.442Z,11.20
2019-05-21T18:22:56.521Z,11.20
2019-05-21T18:25:23.655Z,11.17
2019-05-21T18:27:50.830Z,11.16
2019-05-21T18:30:18.856Z,11.13
2019-05-21T18:32:46.835Z,11.09
2019-05-21T18:35:14.068Z,11.09
2019-05-21T18:37:41.374Z,11.07
2019-05-21T18:40:14.346Z,11.08
2019-05-21T18:42:41.430Z,11.09
2019-05-21T18:45:09.357Z,11.08
2019-05-21T18:47:36.468Z,11.07
2019-05-21T18:50:04.068Z,11.07
2019-05-21T18:52:31.269Z,11.03
2019-05-21T18:54:58.434Z,11.02
2019-05-21T18:57:25.508Z,10.98
2019-05-21T18:59:52.618Z,10.95
2019-05-21T19:02:19.858Z,10.95
2019-05-21T19:04:46.986Z,10.92
2019-05-21T19:07:14.097Z,10.92
2019-05-21T19:09:41.225Z,10.92
2019-05-21T19:12:08.325Z,10.91
2019-05-21T19:14:35.498Z,10.97
2019-05-21T19:17:02.651Z,10.95
2019-05-21T19:19:29.719Z,10.99
2019-05-21T19:21:56.824Z,11.00
2019-05-21T19:24:23.920Z,10.98
2019-05-21T19:26:51.018Z,10.99
2019-05-21T19:29:18.121Z,10.98
2019-05-21T19:31:45.237Z,10.99
2019-05-21T19:34:12.310Z,11.00
2019-05-21T19:36:39.396Z,11.00
2019-05-21T19:39:06.611Z,11.00
2019-05-21T19:41:33.710Z,10.99
2019-05-21T19:44:00.782Z,10.99
2019-05-21T19:46:27.895Z,10.99
2019-05-21T19:48:55.009Z,10.98
2019-05-21T19:51:22.133Z,10.98
2019-05-21T19:53:49.228Z,10.99
2019-05-21T19:56:16.332Z,10.99
2019-05-21T19:58:43.650Z,11.01
2019-05-21T20:01:11.244Z,11.02
2019-05-21T20:03:38.344Z,11.02
2019-05-21T20:06:06.083Z,11.03
2019-05-21T20:08:33.179Z,11.03
2019-05-21T20:11:00.268Z,11.01
2019-05-21T20:13:32.590Z,11.02
2019-05-21T20:15:58.348Z,11.04
2019-05-21T20:18:25.669Z,11.03
2019-05-21T20:20:52.728Z,11.05
2019-05-21T20:23:20.591Z,11.05
2019-05-21T20:25:56.443Z,11.07
2019-05-21T20:28:18.183Z,11.06
2019-05-21T20:30:45.794Z,11.06
2019-05-21T20:33:13.896Z,11.06
2019-05-21T20:35:41.151Z,11.07
2019-05-21T20:38:09.759Z,11.09
2019-05-21T20:40:37.210Z,11.09
2019-05-21T20:43:04.865Z,11.10
2019-05-21T20:45:34.533Z,11.13
2019-05-21T20:48:02.831Z,11.13
2019-05-21T20:50:29.915Z,11.12
2019-05-21T20:52:57.095Z,11.13
2019-05-21T20:55:24.512Z,11.14
2019-05-21T20:57:52.416Z,11.13
2019-05-21T21:00:23.168Z,11.14
2019-05-21T21:02:51.719Z,11.14
2019-05-21T21:05:19.023Z,11.14
2019-05-21T21:07:46.309Z,11.14
2019-05-21T21:10:15.526Z,11.16
2019-05-21T21:12:42.941Z,11.16
2019-05-21T21:15:10.849Z,11.17
2019-05-21T21:17:37.972Z,11.19
2019-05-21T21:20:05.157Z,11.20
2019-05-21T21:22:32.273Z,11.19
2019-05-21T21:24:59.390Z,11.20
2019-05-21T21:27:26.648Z,11.21
2019-05-21T21:29:53.753Z,11.20
2019-05-21T21:32:20.861Z,11.20
2019-05-21T21:34:48.025Z,11.20
2019-05-21T21:37:15.266Z,11.21
2019-05-21T21:39:43.022Z,11.23
2019-05-21T21:42:10.481Z,11.22
2019-05-21T21:44:38.299Z,11.21
2019-05-21T21:47:05.435Z,11.22
2019-05-21T21:49:34.734Z,11.23
2019-05-21T21:52:01.795Z,11.22
2019-05-21T21:54:29.594Z,11.22
2019-05-21T21:56:56.652Z,11.22
2019-05-21T21:59:23.725Z,11.22
2019-05-21T22:01:53.572Z,11.23
2019-05-21T22:04:22.574Z,11.23
2019-05-21T22:06:50.532Z,11.22
2019-05-21T22:09:43.581Z,11.21
2019-05-21T22:12:14.197Z,11.21
2019-05-21T22:14:50.508Z,11.22
2019-05-21T22:17:14.793Z,11.23
2019-05-21T22:19:42.161Z,11.22
2019-05-21T22:22:10.143Z,11.19
2019-05-21T22:24:37.231Z,11.19
2019-05-21T22:27:04.493Z,11.20
2019-05-21T22:29:32.048Z,11.19
2019-05-21T22:31:59.114Z,11.18
2019-05-21T22:34:26.220Z,11.19
2019-05-21T22:36:53.268Z,11.19
2019-05-21T22:39:23.544Z,11.18
2019-05-21T22:41:50.745Z,11.17
2019-05-21T22:44:17.834Z,11.16
2019-05-21T22:46:45.424Z,11.15
2019-05-21T22:49:12.493Z,11.16
2019-05-21T22:51:39.570Z,11.17
2019-05-21T22:54:06.619Z,11.16
2019-05-21T22:56:33.687Z,11.16
2019-05-21T22:59:00.959Z,11.17
2019-05-21T23:01:29.989Z,11.17
2019-05-21T23:03:57.029Z,11.17
2019-05-21T23:06:24.128Z,11.17
2019-05-21T23:08:51.225Z,11.16
2019-05-21T23:11:18.413Z,11.16
2019-05-21T23:13:45.503Z,11.15
2019-05-21T23:16:12.801Z,11.14
2019-05-21T23:18:39.907Z,11.13
2019-05-21T23:21:08.217Z,11.12
2019-05-21T23:23:37.017Z,11.12
2019-05-21T23:26:05.083Z,11.12
2019-05-21T23:28:32.541Z,11.12
2019-05-21T23:31:01.323Z,11.13
2019-05-21T23:33:30.041Z,11.12
2019-05-21T23:35:57.845Z,11.12
2019-05-21T23:38:25.263Z,11.13
2019-05-21T23:40:52.737Z,11.14
2019-05-21T23:43:19.855Z,11.13
2019-05-21T23:45:46.914Z,11.15
2019-05-21T23:48:15.386Z,11.15
2019-05-21T23:50:42.459Z,11.14
2019-05-21T23:53:09.555Z,11.16
2019-05-21T23:55:37.437Z,11.16
2019-05-21T23:58:04.935Z,11.15
